createdAt,value
2022-10-29T00:02:09.297Z,10.60
2022-10-29T00:04:35.934Z,10.60
2022-10-29T00:07:02.602Z,10.60
2022-10-29T00:09:28.615Z,10.50
2022-10-29T00:11:55.270Z,10.50
2022-10-29T00:14:21.301Z,10.50
2022-10-29T00:16:47.302Z,10.50
2022-10-29T00:19:13.906Z,10.40
2022-10-29T00:21:39.959Z,10.40
2022-10-29T00:24:08.799Z,10.30
2022-10-29T00:26:35.427Z,10.20
2022-10-29T00:29:01.455Z,10.10
2022-10-29T00:31:27.636Z,10.10
2022-10-29T00:33:55.057Z,10.00
2022-10-29T00:36:23.189Z,10.00
2022-10-29T00:38:49.946Z,10.00
2022-10-29T00:41:18.944Z,9.80
2022-10-29T00:43:48.301Z,9.70
2022-10-29T00:46:21.829Z,9.80
2022-10-29T00:48:51.341Z,9.60
2022-10-29T00:51:18.192Z,9.60
2022-10-29T00:53:47.726Z,9.60
2022-10-29T00:56:15.556Z,9.70
2022-10-29T00:58:43.398Z,9.60
2022-10-29T01:01:09.804Z,9.70
2022-10-29T01:03:37.790Z,9.70
2022-10-29T01:06:05.351Z,9.80
2022-10-29T01:08:31.377Z,9.80
2022-10-29T01:11:08.185Z,9.70
2022-10-29T01:13:45.207Z,9.60
2022-10-29T01:16:25.773Z,9.50
2022-10-29T01:18:58.764Z,9.50
2022-10-29T01:21:38.880Z,9.40
2022-10-29T01:24:40.397Z,9.50
2022-10-29T01:27:47.274Z,9.50
2022-10-29T01:30:20.303Z,9.40
2022-10-29T01:33:06.866Z,9.40
2022-10-29T01:35:44.113Z,9.50
2022-10-29T01:38:23.426Z,9.40
2022-10-29T01:40:57.216Z,9.30
2022-10-29T01:43:30.993Z,9.30
2022-10-29T01:46:01.013Z,9.40
2022-10-29T01:48:33.225Z,9.40
2022-10-29T01:51:04.120Z,9.40
2022-10-29T01:53:33.887Z,9.60
2022-10-29T01:55:59.886Z,9.60
2022-10-29T01:58:26.018Z,9.50
2022-10-29T02:01:01.018Z,9.50
2022-10-29T02:03:36.955Z,9.50
2022-10-29T02:06:10.637Z,9.40
2022-10-29T02:08:47.158Z,9.40
2022-10-29T02:11:18.356Z,9.30
2022-10-29T02:13:51.917Z,9.20
2022-10-29T02:16:20.174Z,9.20
2022-10-29T02:18:48.319Z,9.20
2022-10-29T02:21:14.958Z,9.20
2022-10-29T02:23:41.597Z,9.10
2022-10-29T02:26:07.656Z,9.00
2022-10-29T02:28:33.762Z,9.00
2022-10-29T02:31:00.380Z,9.00
2022-10-29T02:33:26.419Z,9.00
2022-10-29T02:35:53.155Z,9.20
2022-10-29T02:38:19.882Z,9.30
2022-10-29T02:40:45.933Z,9.50
2022-10-29T02:43:12.080Z,9.40
2022-10-29T02:45:38.777Z,9.40
2022-10-29T02:48:05.338Z,9.50
2022-10-29T02:50:31.442Z,9.60
2022-10-29T02:52:58.691Z,9.40
2022-10-29T02:55:24.784Z,9.40
2022-10-29T02:57:50.765Z,9.40
2022-10-29T03:00:17.903Z,9.50
2022-10-29T03:02:44.111Z,9.40
2022-10-29T03:05:10.401Z,9.60
2022-10-29T03:07:37.644Z,9.40
2022-10-29T03:10:05.444Z,9.40
2022-10-29T03:12:31.761Z,9.30
2022-10-29T03:14:58.413Z,9.20
2022-10-29T03:17:24.674Z,9.20
2022-10-29T03:19:50.799Z,9.10
2022-10-29T03:22:17.447Z,9.00
2022-10-29T03:24:43.524Z,9.10
2022-10-29T03:27:10.264Z,9.20
2022-10-29T03:29:36.870Z,9.20
2022-10-29T03:32:03.064Z,9.30
2022-10-29T03:34:29.194Z,9.20
2022-10-29T03:36:55.799Z,9.20
2022-10-29T03:39:21.814Z,9.20
2022-10-29T03:41:47.819Z,9.40
2022-10-29T03:44:15.062Z,9.50
2022-10-29T03:48:07.245Z,9.60
2022-10-29T03:50:34.655Z,9.70
2022-10-29T03:53:01.415Z,9.70
2022-10-29T03:55:28.247Z,9.60
2022-10-29T03:57:56.184Z,9.50
2022-10-29T04:00:23.220Z,9.40
2022-10-29T04:02:49.937Z,9.30
2022-10-29T04:05:18.682Z,9.50
2022-10-29T04:07:45.411Z,9.50
2022-10-29T04:10:12.206Z,9.60
2022-10-29T04:12:39.545Z,9.50
2022-10-29T04:15:07.274Z,9.70
2022-10-29T04:17:34.002Z,9.90
2022-10-29T04:20:01.420Z,10.00
2022-10-29T04:30:52.494Z,9.70
2022-10-29T04:33:19.676Z,9.70
2022-10-29T04:35:51.850Z,9.70
2022-10-29T04:38:21.269Z,9.70
2022-10-29T04:40:48.329Z,9.70
2022-10-29T04:43:15.261Z,9.60
2022-10-29T04:48:10.787Z,9.50
2022-10-29T04:50:38.312Z,9.50
2022-10-29T04:53:06.400Z,9.50
2022-10-29T04:55:36.323Z,9.60
2022-10-29T04:58:03.056Z,9.50
2022-10-29T05:00:30.412Z,9.50
2022-10-29T05:02:57.350Z,9.50
2022-10-29T05:05:24.761Z,9.50
2022-10-29T05:07:56.922Z,9.50
2022-10-29T05:10:23.880Z,9.40
2022-10-29T05:12:58.310Z,9.40
2022-10-29T05:15:26.730Z,9.40
2022-10-29T05:17:53.678Z,9.50
2022-10-29T05:20:20.608Z,9.70
2022-10-29T05:22:47.948Z,10.00
2022-10-29T05:25:15.116Z,10.00
2022-10-29T05:27:41.939Z,10.10
2022-10-29T05:30:11.153Z,10.10
2022-10-29T05:32:37.954Z,10.10
2022-10-29T05:35:05.340Z,10.10
2022-10-29T05:37:32.755Z,10.20
2022-10-29T05:39:59.483Z,10.20
2022-10-29T05:42:26.210Z,10.20
2022-10-29T05:44:53.540Z,10.30
2022-10-29T05:47:21.612Z,10.20
2022-10-29T05:49:48.373Z,10.20
2022-10-29T05:52:15.696Z,10.30
2022-10-29T05:54:42.427Z,10.20
2022-10-29T05:57:09.147Z,10.10
2022-10-29T05:59:36.487Z,10.30
2022-10-29T06:02:03.295Z,10.30
2022-10-29T06:04:31.427Z,10.30
2022-10-29T06:06:58.802Z,10.40
2022-10-29T06:09:25.573Z,10.50
2022-10-29T06:11:52.313Z,10.50
2022-10-29T06:14:19.643Z,10.50
2022-10-29T06:16:46.480Z,10.50
2022-10-29T06:19:13.253Z,10.50
2022-10-29T06:21:42.011Z,10.60
2022-10-29T06:24:09.185Z,10.50
2022-10-29T06:26:35.926Z,10.60
2022-10-29T06:29:03.485Z,10.60
2022-10-29T06:31:30.214Z,10.60
2022-10-29T06:33:57.108Z,10.60
2022-10-29T06:36:24.534Z,10.70
2022-10-29T06:38:52.616Z,10.60
2022-10-29T06:41:19.426Z,10.50
2022-10-29T06:43:46.809Z,10.50
2022-10-29T06:46:13.549Z,10.50
2022-10-29T06:48:40.308Z,10.60
2022-10-29T06:51:07.773Z,10.60
2022-10-29T06:53:34.581Z,10.60
2022-10-29T06:56:02.736Z,10.60
2022-10-29T06:58:30.054Z,10.70
2022-10-29T07:03:28.458Z,10.80
2022-10-29T07:05:56.584Z,10.90
2022-10-29T07:08:23.498Z,11.00
2022-10-29T07:10:50.933Z,11.00
2022-10-29T07:13:19.719Z,11.10
2022-10-29T07:15:46.610Z,11.10
2022-10-29T07:18:13.372Z,11.20
2022-10-29T07:20:42.450Z,11.20
2022-10-29T07:23:09.947Z,11.30
2022-10-29T07:25:37.916Z,11.40
2022-10-29T07:28:07.264Z,11.40
2022-10-29T07:30:35.662Z,11.40
2022-10-29T07:33:02.467Z,11.50
2022-10-29T07:35:29.894Z,11.50
2022-10-29T07:38:00.378Z,11.50
2022-10-29T07:40:30.887Z,11.50
2022-10-29T07:42:57.998Z,11.60
2022-10-29T07:45:25.085Z,11.80
2022-10-29T07:48:02.765Z,11.80
2022-10-29T07:50:30.970Z,11.90
2022-10-29T07:52:59.481Z,11.90
2022-10-29T07:55:26.467Z,12.00
2022-10-29T07:57:56.652Z,12.10
2022-10-29T08:00:24.793Z,12.20
2022-10-29T08:02:52.956Z,12.40
2022-10-29T08:05:21.181Z,12.40
2022-10-29T08:07:48.475Z,12.60
2022-10-29T08:10:15.854Z,12.70
2022-10-29T08:12:48.874Z,12.80
2022-10-29T08:15:16.298Z,12.90
2022-10-29T08:17:43.313Z,13.00
2022-10-29T08:20:10.590Z,13.10
2022-10-29T08:22:39.502Z,13.20
2022-10-29T08:25:06.736Z,13.30
2022-10-29T08:27:33.508Z,13.40
2022-10-29T08:30:00.914Z,13.40
2022-10-29T08:32:27.751Z,13.60
2022-10-29T08:34:54.520Z,14.00
2022-10-29T08:37:21.924Z,14.10
2022-10-29T08:39:49.990Z,14.30
2022-10-29T08:42:30.104Z,14.50
2022-10-29T08:45:15.588Z,14.50
2022-10-29T08:47:56.470Z,14.70
2022-10-29T08:50:28.615Z,14.80
2022-10-29T08:53:19.350Z,14.80
2022-10-29T08:55:46.254Z,14.70
2022-10-29T08:58:21.474Z,14.70
2022-10-29T09:00:52.877Z,14.80
2022-10-29T09:03:19.644Z,15.00
2022-10-29T09:05:53.554Z,15.00
2022-10-29T09:08:35.692Z,15.00
2022-10-29T09:11:13.840Z,15.10
2022-10-29T09:13:45.841Z,15.00
2022-10-29T09:16:25.001Z,15.00
2022-10-29T09:19:08.411Z,15.00
2022-10-29T09:21:42.654Z,15.00
2022-10-29T09:24:14.863Z,15.10
2022-10-29T09:26:52.718Z,15.20
2022-10-29T09:29:36.278Z,15.10
2022-10-29T09:32:07.751Z,15.10
2022-10-29T09:34:40.066Z,15.20
2022-10-29T09:37:15.677Z,15.20
2022-10-29T09:39:45.818Z,15.30
2022-10-29T09:42:18.144Z,15.40
2022-10-29T09:44:51.991Z,15.50
2022-10-29T09:47:31.635Z,15.50
2022-10-29T09:50:10.066Z,15.50
2022-10-29T09:52:39.815Z,15.50
2022-10-29T09:55:18.319Z,15.60
2022-10-29T09:57:46.533Z,15.50
2022-10-29T10:00:17.477Z,15.50
2022-10-29T10:02:48.319Z,15.50
2022-10-29T10:05:20.669Z,15.50
2022-10-29T10:08:04.858Z,15.40
2022-10-29T10:10:33.112Z,15.50
2022-10-29T10:13:04.795Z,15.50
2022-10-29T10:15:34.366Z,15.50
2022-10-29T10:18:03.188Z,15.50
2022-10-29T10:20:32.271Z,15.60
2022-10-29T10:23:03.170Z,15.70
2022-10-29T10:25:37.863Z,15.80
2022-10-29T10:28:16.690Z,16.00
2022-10-29T10:30:43.789Z,16.10
2022-10-29T10:33:25.597Z,16.20
2022-10-29T10:35:54.413Z,16.20
2022-10-29T10:38:21.998Z,16.50
2022-10-29T10:40:56.385Z,16.70
2022-10-29T10:43:26.406Z,16.60
2022-10-29T10:45:58.052Z,16.90
2022-10-29T10:48:32.509Z,17.40
2022-10-29T10:51:19.881Z,18.00
2022-10-29T10:53:47.449Z,18.30
2022-10-29T10:56:18.701Z,18.30
2022-10-29T10:58:53.478Z,18.50
2022-10-29T11:01:25.623Z,19.00
2022-10-29T11:04:00.581Z,18.90
2022-10-29T11:06:32.182Z,19.10
2022-10-29T11:09:07.010Z,18.80
2022-10-29T11:11:37.620Z,18.40
2022-10-29T11:14:12.890Z,18.80
2022-10-29T11:16:45.372Z,19.00
2022-10-29T11:19:20.607Z,19.10
2022-10-29T11:21:58.218Z,19.20
2022-10-29T11:24:30.296Z,18.90
2022-10-29T11:27:02.941Z,19.10
2022-10-29T11:29:40.020Z,19.30
2022-10-29T11:32:15.234Z,19.70
2022-10-29T11:34:48.354Z,19.80
2022-10-29T11:37:22.886Z,19.70
2022-10-29T11:39:54.886Z,19.40
2022-10-29T11:42:22.235Z,19.10
2022-10-29T11:44:51.078Z,19.10
2022-10-29T11:47:33.201Z,18.70
2022-10-29T11:50:14.389Z,18.50
2022-10-29T11:52:47.777Z,18.70
2022-10-29T11:55:30.332Z,18.90
2022-10-29T11:58:01.811Z,19.00
2022-10-29T12:00:46.365Z,18.90
2022-10-29T12:03:25.532Z,18.90
2022-10-29T12:06:03.218Z,18.80
2022-10-29T12:08:44.207Z,19.00
2022-10-29T12:11:21.587Z,19.00
2022-10-29T12:13:58.389Z,19.00
2022-10-29T12:16:34.970Z,19.10
2022-10-29T12:19:12.406Z,19.20
2022-10-29T12:21:47.001Z,19.70
2022-10-29T12:24:25.190Z,20.20
2022-10-29T12:27:00.186Z,20.40
2022-10-29T12:29:37.831Z,20.80
2022-10-29T12:32:11.828Z,20.60
2022-10-29T12:34:44.950Z,20.80
2022-10-29T12:37:22.245Z,20.70
2022-10-29T12:39:53.209Z,20.40
2022-10-29T12:42:24.992Z,20.50
2022-10-29T12:45:03.804Z,20.70
2022-10-29T12:47:37.428Z,20.60
2022-10-29T12:50:16.678Z,20.80
2022-10-29T12:52:49.367Z,20.90
2022-10-29T12:55:17.568Z,20.80
2022-10-29T12:57:44.929Z,20.80
2022-10-29T13:00:43.794Z,21.00
2022-10-29T13:03:12.581Z,20.90
2022-10-29T13:05:42.177Z,20.90
2022-10-29T13:08:29.031Z,20.60
2022-10-29T13:10:57.281Z,20.50
2022-10-29T13:13:51.630Z,20.40
2022-10-29T13:16:24.631Z,20.70
2022-10-29T13:19:08.622Z,21.10
2022-10-29T13:21:58.186Z,21.40
2022-10-29T13:24:25.962Z,21.60
2022-10-29T13:27:02.452Z,21.60
2022-10-29T13:29:47.385Z,21.70
2022-10-29T13:32:35.098Z,21.60
2022-10-29T13:35:05.973Z,21.70
2022-10-29T13:38:09.438Z,21.80
2022-10-29T13:40:55.698Z,21.70
2022-10-29T13:43:23.947Z,21.60
2022-10-29T13:46:00.955Z,21.30
2022-10-29T13:48:31.472Z,21.10
2022-10-29T13:51:02.744Z,20.80
2022-10-29T13:53:38.105Z,20.70
2022-10-29T13:56:10.651Z,20.50
2022-10-29T13:58:42.890Z,20.30
2022-10-29T14:01:14.395Z,20.10
2022-10-29T14:03:54.170Z,20.00
2022-10-29T14:06:25.761Z,19.90
2022-10-29T14:08:58.081Z,19.70
2022-10-29T14:11:28.223Z,19.60
2022-10-29T14:13:59.417Z,19.50
2022-10-29T14:16:29.657Z,19.50
2022-10-29T14:18:56.988Z,19.40
2022-10-29T14:21:26.885Z,19.40
2022-10-29T14:23:58.455Z,19.30
2022-10-29T14:26:26.977Z,19.30
2022-10-29T14:28:53.985Z,19.20
2022-10-29T14:31:22.526Z,19.10
2022-10-29T14:33:55.011Z,19.10
2022-10-29T14:36:29.295Z,19.00
2022-10-29T14:39:00.116Z,19.00
2022-10-29T14:41:29.060Z,18.90
2022-10-29T14:44:04.725Z,18.80
2022-10-29T14:46:34.642Z,18.80
2022-10-29T14:49:10.693Z,18.80
2022-10-29T14:51:41.269Z,18.70
2022-10-29T14:54:19.311Z,18.70
2022-10-29T14:56:50.074Z,18.60
2022-10-29T14:59:23.759Z,18.50
2022-10-29T15:01:57.117Z,18.50
2022-10-29T15:04:29.691Z,18.40
2022-10-29T15:07:15.862Z,18.30
2022-10-29T15:09:45.110Z,18.30
2022-10-29T15:12:18.354Z,18.30
2022-10-29T15:14:50.073Z,18.20
2022-10-29T15:17:21.622Z,18.10
2022-10-29T15:19:53.492Z,18.00
2022-10-29T15:22:26.321Z,18.00
2022-10-29T15:24:55.321Z,17.90
2022-10-29T15:27:22.793Z,17.80
2022-10-29T15:29:54.429Z,17.70
2022-10-29T15:32:23.315Z,17.60
2022-10-29T15:34:52.237Z,17.60
2022-10-29T15:37:38.946Z,17.60
2022-10-29T15:40:10.917Z,17.50
2022-10-29T15:42:37.846Z,17.50
2022-10-29T15:45:25.509Z,17.40
2022-10-29T15:47:57.025Z,17.30
2022-10-29T15:50:26.463Z,17.20
2022-10-29T15:52:57.613Z,17.10
2022-10-29T15:55:29.377Z,17.00
2022-10-29T15:58:02.477Z,16.90
2022-10-29T16:00:30.564Z,16.80
2022-10-29T16:03:00.826Z,16.80
2022-10-29T16:05:27.761Z,16.80
2022-10-29T16:07:59.394Z,16.70
2022-10-29T16:10:26.750Z,16.70
2022-10-29T16:12:53.608Z,16.70
2022-10-29T16:15:20.583Z,16.70
2022-10-29T16:17:48.066Z,16.60
2022-10-29T16:20:17.130Z,16.60
2022-10-29T16:22:45.373Z,16.70
2022-10-29T16:25:18.587Z,16.60
2022-10-29T16:27:45.335Z,16.60
2022-10-29T16:30:13.437Z,16.50
2022-10-29T16:32:41.433Z,16.60
2022-10-29T16:35:14.039Z,16.50
2022-10-29T16:37:41.412Z,16.50
2022-10-29T16:40:09.565Z,16.40
2022-10-29T16:42:37.669Z,16.30
2022-10-29T16:45:05.810Z,16.30
2022-10-29T16:47:32.832Z,16.30
2022-10-29T16:49:59.544Z,16.30
2022-10-29T16:52:29.434Z,16.20
2022-10-29T16:54:56.878Z,16.30
2022-10-29T16:57:23.650Z,16.20
2022-10-29T16:59:52.340Z,16.10
2022-10-29T17:02:19.078Z,16.10
2022-10-29T17:04:45.933Z,16.00
2022-10-29T17:07:13.269Z,15.90
2022-10-29T17:09:40.007Z,16.00
2022-10-29T17:12:07.242Z,16.00
2022-10-29T17:14:34.723Z,16.00
2022-10-29T17:17:02.807Z,16.10
2022-10-29T17:19:29.638Z,16.10
2022-10-29T17:21:57.122Z,16.20
2022-10-29T17:24:24.238Z,16.30
2022-10-29T17:26:50.977Z,16.30
2022-10-29T17:29:18.715Z,16.30
2022-10-29T17:31:45.469Z,16.40
2022-10-29T17:34:13.555Z,16.40
2022-10-29T17:36:40.893Z,16.50
2022-10-29T17:39:10.487Z,16.50
2022-10-29T17:41:37.534Z,16.40
2022-10-29T17:44:05.183Z,16.40
2022-10-29T17:46:32.539Z,16.30
2022-10-29T17:48:59.361Z,16.30
2022-10-29T17:51:28.083Z,16.20
2022-10-29T17:53:55.139Z,16.10
2022-10-29T17:56:21.889Z,16.00
2022-10-29T17:58:49.435Z,15.90
2022-10-29T18:01:16.619Z,15.90
2022-10-29T18:03:43.948Z,15.90
2022-10-29T18:06:12.986Z,15.70
2022-10-29T18:08:42.541Z,15.60
2022-10-29T18:11:11.356Z,15.60
2022-10-29T18:13:40.678Z,15.40
2022-10-29T18:16:08.114Z,15.40
2022-10-29T18:18:48.003Z,15.40
2022-10-29T18:21:24.035Z,15.30
2022-10-29T18:23:52.631Z,15.40
2022-10-29T18:26:22.199Z,15.20
2022-10-29T18:28:59.789Z,15.30
2022-10-29T18:31:27.961Z,15.10
2022-10-29T18:33:55.388Z,15.00
2022-10-29T18:36:22.123Z,14.90
2022-10-29T18:38:54.688Z,14.70
2022-10-29T18:41:22.791Z,14.70
2022-10-29T18:43:49.841Z,14.60
2022-10-29T18:46:17.518Z,14.60
2022-10-29T18:48:47.072Z,14.70
2022-10-29T18:51:16.036Z,14.70
2022-10-29T18:53:42.646Z,14.60
2022-10-29T18:56:13.175Z,14.50
2022-10-29T18:58:40.420Z,14.50
2022-10-29T19:01:09.717Z,14.40
2022-10-29T19:03:37.552Z,14.40
2022-10-29T19:06:06.591Z,14.40
2022-10-29T19:08:34.699Z,14.40
2022-10-29T19:11:03.859Z,14.40
2022-10-29T19:13:32.294Z,14.40
2022-10-29T19:16:03.125Z,14.30
2022-10-29T19:18:31.174Z,14.30
2022-10-29T19:21:02.978Z,14.30
2022-10-29T19:23:30.365Z,14.40
2022-10-29T19:25:57.427Z,14.40
2022-10-29T19:28:24.235Z,14.40
2022-10-29T19:30:52.938Z,14.40
2022-10-29T19:33:19.696Z,14.40
2022-10-29T19:35:46.514Z,14.40
2022-10-29T19:38:13.858Z,14.40
2022-10-29T19:40:41.713Z,14.40
2022-10-29T19:43:08.463Z,14.50
2022-10-29T19:45:38.584Z,14.60
2022-10-29T19:48:07.694Z,14.70
2022-10-29T19:50:35.765Z,14.70
2022-10-29T19:53:02.927Z,14.70
2022-10-29T19:55:29.961Z,14.60
2022-10-29T19:57:57.351Z,14.50
2022-10-29T20:00:24.206Z,14.60
2022-10-29T20:02:51.572Z,14.60
2022-10-29T20:05:20.621Z,14.70
2022-10-29T20:07:47.921Z,14.60
2022-10-29T20:10:15.041Z,14.50
2022-10-29T20:12:42.377Z,14.50
2022-10-29T20:15:09.729Z,14.40
2022-10-29T20:17:36.557Z,14.40
2022-10-29T20:20:04.601Z,14.40
2022-10-29T20:22:32.715Z,14.40
2022-10-29T20:24:59.439Z,14.30
2022-10-29T20:27:26.817Z,14.30
2022-10-29T20:29:53.557Z,14.30
2022-10-29T20:32:20.331Z,14.20
2022-10-29T20:34:47.695Z,14.20
2022-10-29T20:37:14.462Z,14.30
2022-10-29T20:39:42.553Z,14.30
2022-10-29T20:42:10.011Z,14.20
2022-10-29T20:44:36.784Z,14.30
2022-10-29T20:47:03.750Z,14.10
2022-10-29T20:49:31.491Z,14.20
2022-10-29T20:51:58.254Z,14.20
2022-10-29T20:54:24.979Z,14.20
2022-10-29T20:56:54.602Z,14.20
2022-10-29T20:59:21.321Z,14.20
2022-10-29T21:01:48.141Z,14.20
2022-10-29T21:04:15.784Z,14.10
2022-10-29T21:06:42.590Z,14.10
2022-10-29T21:09:09.368Z,14.10
2022-10-29T21:11:36.750Z,14.10
2022-10-29T21:14:04.839Z,14.00
2022-10-29T21:16:31.651Z,14.10
2022-10-29T21:19:00.605Z,14.10
2022-10-29T21:21:28.574Z,14.10
2022-10-29T21:23:56.754Z,14.00
2022-10-29T21:26:25.769Z,14.10
2022-10-29T21:28:53.438Z,14.00
2022-10-29T21:31:22.785Z,14.00
2022-10-29T21:33:50.355Z,13.90
2022-10-29T21:36:17.382Z,13.80
2022-10-29T21:38:44.140Z,13.80
2022-10-29T21:41:11.536Z,13.80
2022-10-29T21:43:39.035Z,13.80
2022-10-29T21:46:06.558Z,13.70
2022-10-29T21:48:35.406Z,13.70
2022-10-29T21:51:03.852Z,13.60
2022-10-29T21:53:30.690Z,13.60
2022-10-29T21:55:58.597Z,13.60
2022-10-29T21:58:25.870Z,13.50
2022-10-29T22:01:00.681Z,13.40
2022-10-29T22:03:30.170Z,13.40
2022-10-29T22:06:01.949Z,13.40
2022-10-29T22:08:29.367Z,13.40
2022-10-29T22:10:57.185Z,13.40
2022-10-29T22:13:23.959Z,13.50
2022-10-29T22:15:51.293Z,13.60
2022-10-29T22:18:18.026Z,13.50
2022-10-29T22:20:44.765Z,13.40
2022-10-29T22:23:13.522Z,13.40
2022-10-29T22:25:40.270Z,13.40
2022-10-29T22:28:06.991Z,13.30
2022-10-29T22:30:34.334Z,13.40
2022-10-29T22:33:01.939Z,13.20
2022-10-29T22:35:28.618Z,13.10
2022-10-29T22:37:56.247Z,13.20
2022-10-29T22:40:24.455Z,12.90
2022-10-29T22:42:51.179Z,12.90
2022-10-29T22:45:18.602Z,12.90
2022-10-29T22:47:45.369Z,12.80
2022-10-29T22:50:12.159Z,12.80
2022-10-29T22:55:07.987Z,12.70
2022-10-29T22:57:36.069Z,12.70
2022-10-29T23:00:03.927Z,12.80
2022-10-29T23:02:30.818Z,12.80
2022-10-29T23:04:57.573Z,12.90
2022-10-29T23:07:24.951Z,12.90
2022-10-29T23:09:51.701Z,12.80
2022-10-29T23:12:18.442Z,12.80
2022-10-29T23:14:47.113Z,12.80
2022-10-29T23:17:19.573Z,12.80
2022-10-29T23:19:46.999Z,12.70
2022-10-29T23:24:46.003Z,12.60
2022-10-29T23:27:12.841Z,12.70
2022-10-29T23:29:39.625Z,12.50
2022-10-29T23:32:08.446Z,12.50
2022-10-29T23:34:35.130Z,12.40
2022-10-29T23:37:04.312Z,12.50
2022-10-29T23:39:34.474Z,12.40
2022-10-29T23:42:01.239Z,12.40
2022-10-29T23:44:27.987Z,12.30
2022-10-29T23:46:55.322Z,12.20
2022-10-29T23:49:23.451Z,12.10
2022-10-29T23:51:50.169Z,12.10
2022-10-29T23:54:17.494Z,11.90
2022-10-29T23:56:44.196Z,11.90
2022-10-29T23:59:10.933Z,12.00
